Terminal Aerodrome Forecast
Issued by NWS

Home | Current Version | Previous Version | Text Only | Print | Product List | Glossary On
Versions: 1 2 3 4 5 6 7 8 9 10 11 12 13 14 15
000
FTUS46 KSGX 270520
TAFSNA
TAF
KSNA 270520Z 2706/2806 VRB03KT P6SM SCT250
     FM271100 VRB05KT P6SM SCT250 WS010/07025KT
     FM271500 VRB06KT P6SM SCT250
     FM272000 23011KT P6SM FEW250
     FM280100 VRB04KT P6SM FEW250=

USA.gov is the U.S. government's official web portal to all federal, state and local government web resources and services.